sensor_id;sensor_type;location;lat;lon;timestamp;P1;durP1;ratioP1;P2;durP2;ratioP2
71973;SDS011;59840;52.122;5.404;2024-02-14T00:02:22;2.42;;;1.95;;
71973;SDS011;59840;52.122;5.404;2024-02-14T00:04:49;2.55;;;2.10;;
71973;SDS011;59840;52.122;5.404;2024-02-14T00:07:15;3.47;;;2.45;;
71973;SDS011;59840;52.122;5.404;2024-02-14T00:09:42;2.72;;;2.42;;
71973;SDS011;59840;52.122;5.404;2024-02-14T00:12:09;4.50;;;2.70;;
71973;SDS011;59840;52.122;5.404;2024-02-14T00:14:38;2.95;;;2.65;;
71973;SDS011;59840;52.122;5.404;2024-02-14T00:17:05;2.92;;;2.60;;
71973;SDS011;59840;52.122;5.404;2024-02-14T00:19:31;4.13;;;2.60;;
71973;SDS011;59840;52.122;5.404;2024-02-14T00:21:58;4.30;;;2.40;;
71973;SDS011;59840;52.122;5.404;2024-02-14T00:24:25;2.67;;;2.40;;
71973;SDS011;59840;52.122;5.404;2024-02-14T00:26:53;2.60;;;2.40;;
71973;SDS011;59840;52.122;5.404;2024-02-14T00:29:19;3.85;;;2.60;;
71973;SDS011;59840;52.122;5.404;2024-02-14T00:31:47;3.55;;;2.78;;
71973;SDS011;59840;52.122;5.404;2024-02-14T00:34:13;3.17;;;2.67;;
71973;SDS011;59840;52.122;5.404;2024-02-14T00:36:40;2.73;;;2.40;;
71973;SDS011;59840;52.122;5.404;2024-02-14T00:39:07;4.75;;;2.72;;
71973;SDS011;59840;52.122;5.404;2024-02-14T00:41:35;3.25;;;2.90;;
71973;SDS011;59840;52.122;5.404;2024-02-14T00:44:02;4.57;;;2.90;;
71973;SDS011;59840;52.122;5.404;2024-02-14T00:46:32;4.75;;;3.35;;
71973;SDS011;59840;52.122;5.404;2024-02-14T00:48:59;2.93;;;2.63;;
71973;SDS011;59840;52.122;5.404;2024-02-14T00:51:26;4.53;;;3.00;;
71973;SDS011;59840;52.122;5.404;2024-02-14T00:53:52;3.13;;;2.83;;
71973;SDS011;59840;52.122;5.404;2024-02-14T00:56:20;3.55;;;3.20;;
71973;SDS011;59840;52.122;5.404;2024-02-14T00:58:47;4.22;;;3.53;;
71973;SDS011;59840;52.122;5.404;2024-02-14T01:01:13;4.03;;;3.60;;
71973;SDS011;59840;52.122;5.404;2024-02-14T01:03:40;4.15;;;3.58;;
71973;SDS011;59840;52.122;5.404;2024-02-14T01:06:07;4.55;;;4.03;;
71973;SDS011;59840;52.122;5.404;2024-02-14T01:08:34;4.85;;;3.90;;
71973;SDS011;59840;52.122;5.404;2024-02-14T01:11:02;4.22;;;3.83;;
71973;SDS011;59840;52.122;5.404;2024-02-14T01:13:29;6.03;;;3.83;;
71973;SDS011;59840;52.122;5.404;2024-02-14T01:15:55;4.35;;;3.95;;
71973;SDS011;59840;52.122;5.404;2024-02-14T01:18:22;4.32;;;3.92;;
71973;SDS011;59840;52.122;5.404;2024-02-14T01:20:49;6.80;;;4.43;;
71973;SDS011;59840;52.122;5.404;2024-02-14T01:23:15;4.88;;;4.28;;
71973;SDS011;59840;52.122;5.404;2024-02-14T01:25:42;4.73;;;3.93;;
71973;SDS011;59840;52.122;5.404;2024-02-14T01:28:09;5.53;;;4.03;;
71973;SDS011;59840;52.122;5.404;2024-02-14T01:30:36;4.53;;;3.97;;
71973;SDS011;59840;52.122;5.404;2024-02-14T01:33:02;5.53;;;4.20;;
71973;SDS011;59840;52.122;5.404;2024-02-14T01:35:32;5.03;;;4.53;;
71973;SDS011;59840;52.122;5.404;2024-02-14T01:37:59;4.70;;;4.30;;
71973;SDS011;59840;52.122;5.404;2024-02-14T01:40:25;5.25;;;4.07;;
71973;SDS011;59840;52.122;5.404;2024-02-14T01:42:52;4.85;;;4.35;;
71973;SDS011;59840;52.122;5.404;2024-02-14T01:45:19;6.05;;;4.40;;
71973;SDS011;59840;52.122;5.404;2024-02-14T01:47:45;4.63;;;4.00;;
71973;SDS011;59840;52.122;5.404;2024-02-14T01:50:12;5.40;;;4.03;;
71973;SDS011;59840;52.122;5.404;2024-02-14T01:52:39;4.80;;;4.22;;
71973;SDS011;59840;52.122;5.404;2024-02-14T01:55:07;5.40;;;4.55;;
71973;SDS011;59840;52.122;5.404;2024-02-14T01:57:34;5.15;;;4.40;;
71973;SDS011;59840;52.122;5.404;2024-02-14T02:00:03;4.72;;;4.28;;
71973;SDS011;59840;52.122;5.404;2024-02-14T02:02:35;5.30;;;4.67;;
71973;SDS011;59840;52.122;5.404;2024-02-14T02:05:06;5.55;;;4.85;;
71973;SDS011;59840;52.122;5.404;2024-02-14T02:07:33;6.80;;;4.57;;
71973;SDS011;59840;52.122;5.404;2024-02-14T02:10:00;10.18;;;5.18;;
71973;SDS011;59840;52.122;5.404;2024-02-14T02:12:26;5.05;;;4.57;;
71973;SDS011;59840;52.122;5.404;2024-02-14T02:14:53;5.37;;;4.23;;
71973;SDS011;59840;52.122;5.404;2024-02-14T02:17:20;6.40;;;4.90;;
71973;SDS011;59840;52.122;5.404;2024-02-14T02:19:47;5.15;;;4.65;;
71973;SDS011;59840;52.122;5.404;2024-02-14T02:22:14;5.40;;;4.90;;
71973;SDS011;59840;52.122;5.404;2024-02-14T02:24:41;7.72;;;5.10;;
71973;SDS011;59840;52.122;5.404;2024-02-14T02:27:07;5.33;;;4.80;;
71973;SDS011;59840;52.122;5.404;2024-02-14T02:29:34;6.32;;;5.00;;
71973;SDS011;59840;52.122;5.404;2024-02-14T02:32:01;5.10;;;4.60;;
71973;SDS011;59840;52.122;5.404;2024-02-14T02:34:27;4.93;;;4.47;;
71973;SDS011;59840;52.122;5.404;2024-02-14T02:36:54;6.07;;;4.82;;
71973;SDS011;59840;52.122;5.404;2024-02-14T02:39:21;6.37;;;5.00;;
71973;SDS011;59840;52.122;5.404;2024-02-14T02:41:47;6.25;;;5.43;;
71973;SDS011;59840;52.122;5.404;2024-02-14T02:44:16;6.40;;;5.63;;
71973;SDS011;59840;52.122;5.404;2024-02-14T02:46:42;7.70;;;5.72;;
71973;SDS011;59840;52.122;5.404;2024-02-14T02:49:12;6.15;;;5.18;;
71973;SDS011;59840;52.122;5.404;2024-02-14T02:51:40;8.43;;;5.47;;
71973;SDS011;59840;52.122;5.404;2024-02-14T02:54:07;6.07;;;5.15;;
71973;SDS011;59840;52.122;5.404;2024-02-14T02:56:34;7.55;;;5.90;;
71973;SDS011;59840;52.122;5.404;2024-02-14T02:59:01;6.93;;;5.43;;
71973;SDS011;59840;52.122;5.404;2024-02-14T03:01:34;7.63;;;5.65;;
71973;SDS011;59840;52.122;5.404;2024-02-14T03:04:02;8.30;;;5.77;;
71973;SDS011;59840;52.122;5.404;2024-02-14T03:06:29;8.80;;;5.85;;
71973;SDS011;59840;52.122;5.404;2024-02-14T03:08:56;6.18;;;5.38;;
71973;SDS011;59840;52.122;5.404;2024-02-14T03:11:23;6.57;;;4.50;;
71973;SDS011;59840;52.122;5.404;2024-02-14T03:13:52;5.70;;;4.63;;
71973;SDS011;59840;52.122;5.404;2024-02-14T03:16:18;5.13;;;4.63;;
71973;SDS011;59840;52.122;5.404;2024-02-14T03:18:45;5.55;;;5.05;;
71973;SDS011;59840;52.122;5.404;2024-02-14T03:21:12;6.75;;;4.80;;
71973;SDS011;59840;52.122;5.404;2024-02-14T03:23:39;7.85;;;5.38;;
71973;SDS011;59840;52.122;5.404;2024-02-14T03:26:06;6.10;;;5.50;;
71973;SDS011;59840;52.122;5.404;2024-02-14T03:28:34;6.00;;;5.17;;
71973;SDS011;59840;52.122;5.404;2024-02-14T03:31:01;7.03;;;5.35;;
71973;SDS011;59840;52.122;5.404;2024-02-14T03:33:27;8.90;;;6.22;;
71973;SDS011;59840;52.122;5.404;2024-02-14T03:35:55;8.52;;;5.90;;
71973;SDS011;59840;52.122;5.404;2024-02-14T03:38:28;9.68;;;5.82;;
71973;SDS011;59840;52.122;5.404;2024-02-14T03:40:55;8.67;;;6.50;;
71973;SDS011;59840;52.122;5.404;2024-02-14T03:43:22;10.00;;;6.18;;
71973;SDS011;59840;52.122;5.404;2024-02-14T03:45:50;8.15;;;5.90;;
71973;SDS011;59840;52.122;5.404;2024-02-14T03:48:18;9.95;;;6.30;;
71973;SDS011;59840;52.122;5.404;2024-02-14T03:50:44;10.40;;;5.80;;
71973;SDS011;59840;52.122;5.404;2024-02-14T03:53:11;8.60;;;5.80;;
71973;SDS011;59840;52.122;5.404;2024-02-14T03:55:37;13.63;;;6.28;;
71973;SDS011;59840;52.122;5.404;2024-02-14T03:58:04;10.35;;;6.20;;
71973;SDS011;59840;52.122;5.404;2024-02-14T04:00:31;11.15;;;5.90;;
71973;SDS011;59840;52.122;5.404;2024-02-14T04:02:59;15.20;;;6.80;;
71973;SDS011;59840;52.122;5.404;2024-02-14T04:05:26;10.23;;;5.83;;
71973;SDS011;59840;52.122;5.404;2024-02-14T04:07:54;12.02;;;6.28;;
71973;SDS011;59840;52.122;5.404;2024-02-14T04:10:22;11.70;;;6.30;;
71973;SDS011;59840;52.122;5.404;2024-02-14T04:12:49;9.38;;;6.30;;
71973;SDS011;59840;52.122;5.404;2024-02-14T04:15:15;14.48;;;7.03;;
71973;SDS011;59840;52.122;5.404;2024-02-14T04:17:42;12.43;;;6.10;;
71973;SDS011;59840;52.122;5.404;2024-02-14T04:20:09;11.85;;;6.57;;
71973;SDS011;59840;52.122;5.404;2024-02-14T04:22:35;8.93;;;6.10;;
71973;SDS011;59840;52.122;5.404;2024-02-14T04:25:02;12.07;;;6.68;;
71973;SDS011;59840;52.122;5.404;2024-02-14T04:27:29;12.65;;;6.35;;
71973;SDS011;59840;52.122;5.404;2024-02-14T04:29:56;17.87;;;6.27;;
71973;SDS011;59840;52.122;5.404;2024-02-14T04:32:22;18.38;;;6.57;;
71973;SDS011;59840;52.122;5.404;2024-02-14T04:34:51;10.00;;;6.05;;
71973;SDS011;59840;52.122;5.404;2024-02-14T04:37:18;11.07;;;6.45;;
71973;SDS011;59840;52.122;5.404;2024-02-14T04:39:45;11.63;;;6.25;;
71973;SDS011;59840;52.122;5.404;2024-02-14T04:42:12;11.13;;;6.37;;
71973;SDS011;59840;52.122;5.404;2024-02-14T04:44:38;17.08;;;6.78;;
71973;SDS011;59840;52.122;5.404;2024-02-14T04:47:05;14.90;;;6.32;;
71973;SDS011;59840;52.122;5.404;2024-02-14T04:49:32;9.65;;;6.07;;
71973;SDS011;59840;52.122;5.404;2024-02-14T04:51:59;16.63;;;7.40;;
71973;SDS011;59840;52.122;5.404;2024-02-14T04:54:26;17.77;;;6.70;;
71973;SDS011;59840;52.122;5.404;2024-02-14T04:56:53;12.55;;;6.55;;
71973;SDS011;59840;52.122;5.404;2024-02-14T04:59:24;12.02;;;6.50;;
71973;SDS011;59840;52.122;5.404;2024-02-14T05:07:34;9.97;;;6.27;;
71973;SDS011;59840;52.122;5.404;2024-02-14T05:10:01;13.00;;;6.00;;
71973;SDS011;59840;52.122;5.404;2024-02-14T05:12:27;12.98;;;6.82;;
71973;SDS011;59840;52.122;5.404;2024-02-14T05:14:54;11.68;;;7.32;;
71973;SDS011;59840;52.122;5.404;2024-02-14T05:17:20;14.15;;;7.30;;
71973;SDS011;59840;52.122;5.404;2024-02-14T05:19:47;14.60;;;6.87;;
71973;SDS011;59840;52.122;5.404;2024-02-14T05:22:14;12.48;;;7.38;;
71973;SDS011;59840;52.122;5.404;2024-02-14T05:24:40;12.48;;;7.20;;
71973;SDS011;59840;52.122;5.404;2024-02-14T05:27:07;9.75;;;7.40;;
71973;SDS011;59840;52.122;5.404;2024-02-14T05:29:34;15.18;;;7.78;;
71973;SDS011;59840;52.122;5.404;2024-02-14T05:32:02;14.60;;;8.27;;
71973;SDS011;59840;52.122;5.404;2024-02-14T05:34:29;14.40;;;8.25;;
71973;SDS011;59840;52.122;5.404;2024-02-14T05:36:56;14.23;;;7.70;;
71973;SDS011;59840;52.122;5.404;2024-02-14T05:39:22;15.65;;;7.65;;
71973;SDS011;59840;52.122;5.404;2024-02-14T05:41:49;17.02;;;7.95;;
71973;SDS011;59840;52.122;5.404;2024-02-14T05:44:15;11.20;;;7.23;;
71973;SDS011;59840;52.122;5.404;2024-02-14T05:46:42;17.02;;;7.70;;
71973;SDS011;59840;52.122;5.404;2024-02-14T05:49:09;8.65;;;6.75;;
71973;SDS011;59840;52.122;5.404;2024-02-14T05:51:36;12.85;;;5.97;;
71973;SDS011;59840;52.122;5.404;2024-02-14T05:54:02;9.85;;;5.88;;
71973;SDS011;59840;52.122;5.404;2024-02-14T05:56:29;10.63;;;6.80;;
71973;SDS011;59840;52.122;5.404;2024-02-14T05:58:56;11.75;;;6.57;;
71973;SDS011;59840;52.122;5.404;2024-02-14T06:01:22;11.23;;;6.38;;
71973;SDS011;59840;52.122;5.404;2024-02-14T06:03:49;8.38;;;5.80;;
71973;SDS011;59840;52.122;5.404;2024-02-14T06:06:16;8.55;;;5.28;;
71973;SDS011;59840;52.122;5.404;2024-02-14T06:08:42;7.40;;;5.77;;
71973;SDS011;59840;52.122;5.404;2024-02-14T06:11:09;7.03;;;5.35;;
71973;SDS011;59840;52.122;5.404;2024-02-14T06:13:36;7.22;;;5.22;;
71973;SDS011;59840;52.122;5.404;2024-02-14T06:16:03;9.32;;;5.63;;
71973;SDS011;59840;52.122;5.404;2024-02-14T06:18:30;7.55;;;5.93;;
71973;SDS011;59840;52.122;5.404;2024-02-14T06:20:56;8.07;;;5.67;;
71973;SDS011;59840;52.122;5.404;2024-02-14T06:23:23;6.75;;;5.75;;
71973;SDS011;59840;52.122;5.404;2024-02-14T06:25:50;8.32;;;5.97;;
71973;SDS011;59840;52.122;5.404;2024-02-14T06:28:16;10.25;;;5.45;;
71973;SDS011;59840;52.122;5.404;2024-02-14T06:30:43;7.30;;;5.38;;
71973;SDS011;59840;52.122;5.404;2024-02-14T06:33:09;6.20;;;5.30;;
71973;SDS011;59840;52.122;5.404;2024-02-14T06:35:36;8.15;;;5.72;;
71973;SDS011;59840;52.122;5.404;2024-02-14T06:38:03;5.20;;;4.55;;
71973;SDS011;59840;52.122;5.404;2024-02-14T06:40:31;7.78;;;4.43;;
71973;SDS011;59840;52.122;5.404;2024-02-14T06:42:58;6.80;;;5.03;;
71973;SDS011;59840;52.122;5.404;2024-02-14T06:45:27;6.63;;;4.80;;
71973;SDS011;59840;52.122;5.404;2024-02-14T06:47:56;7.35;;;5.05;;
71973;SDS011;59840;52.122;5.404;2024-02-14T06:50:23;6.43;;;5.40;;
71973;SDS011;59840;52.122;5.404;2024-02-14T06:52:52;8.40;;;5.75;;
71973;SDS011;59840;52.122;5.404;2024-02-14T06:55:19;9.82;;;5.93;;
71973;SDS011;59840;52.122;5.404;2024-02-14T06:57:45;14.23;;;6.57;;
71973;SDS011;59840;52.122;5.404;2024-02-14T07:00:12;11.23;;;6.13;;
71973;SDS011;59840;52.122;5.404;2024-02-14T07:02:39;8.73;;;7.50;;
71973;SDS011;59840;52.122;5.404;2024-02-14T07:05:06;9.63;;;6.15;;
71973;SDS011;59840;52.122;5.404;2024-02-14T07:07:34;9.23;;;6.15;;
71973;SDS011;59840;52.122;5.404;2024-02-14T07:10:00;11.07;;;6.73;;
71973;SDS011;59840;52.122;5.404;2024-02-14T07:12:27;9.80;;;5.95;;
71973;SDS011;59840;52.122;5.404;2024-02-14T07:14:56;12.35;;;6.80;;
71973;SDS011;59840;52.122;5.404;2024-02-14T07:17:23;15.32;;;7.50;;
71973;SDS011;59840;52.122;5.404;2024-02-14T07:19:50;7.78;;;6.43;;
71973;SDS011;59840;52.122;5.404;2024-02-14T07:22:17;11.73;;;7.37;;
71973;SDS011;59840;52.122;5.404;2024-02-14T07:24:46;13.10;;;8.27;;
71973;SDS011;59840;52.122;5.404;2024-02-14T07:27:13;15.20;;;8.20;;
71973;SDS011;59840;52.122;5.404;2024-02-14T07:29:41;13.82;;;8.65;;
71973;SDS011;59840;52.122;5.404;2024-02-14T07:32:07;14.18;;;8.07;;
71973;SDS011;59840;52.122;5.404;2024-02-14T07:34:34;12.20;;;8.27;;
71973;SDS011;59840;52.122;5.404;2024-02-14T07:37:05;12.82;;;7.68;;
71973;SDS011;59840;52.122;5.404;2024-02-14T07:39:32;12.48;;;7.65;;
71973;SDS011;59840;52.122;5.404;2024-02-14T07:42:01;11.88;;;7.10;;
71973;SDS011;59840;52.122;5.404;2024-02-14T07:44:28;13.35;;;7.40;;
71973;SDS011;59840;52.122;5.404;2024-02-14T07:46:55;9.77;;;7.33;;
71973;SDS011;59840;52.122;5.404;2024-02-14T07:49:25;11.35;;;7.30;;
71973;SDS011;59840;52.122;5.404;2024-02-14T07:51:51;15.23;;;7.55;;
71973;SDS011;59840;52.122;5.404;2024-02-14T07:54:18;11.10;;;7.25;;
71973;SDS011;59840;52.122;5.404;2024-02-14T07:56:45;13.20;;;7.60;;
71973;SDS011;59840;52.122;5.404;2024-02-14T07:59:12;12.00;;;7.33;;
71973;SDS011;59840;52.122;5.404;2024-02-14T08:01:38;12.70;;;7.85;;
71973;SDS011;59840;52.122;5.404;2024-02-14T08:04:05;14.10;;;7.85;;
71973;SDS011;59840;52.122;5.404;2024-02-14T08:06:31;14.95;;;7.70;;
71973;SDS011;59840;52.122;5.404;2024-02-14T08:08:58;15.18;;;8.38;;
71973;SDS011;59840;52.122;5.404;2024-02-14T08:11:28;11.23;;;7.73;;
71973;SDS011;59840;52.122;5.404;2024-02-14T08:13:55;14.50;;;7.78;;
71973;SDS011;59840;52.122;5.404;2024-02-14T08:16:22;10.90;;;7.90;;
71973;SDS011;59840;52.122;5.404;2024-02-14T08:18:48;11.23;;;6.88;;
71973;SDS011;59840;52.122;5.404;2024-02-14T08:21:17;8.93;;;7.05;;
71973;SDS011;59840;52.122;5.404;2024-02-14T08:23:44;11.27;;;7.50;;
71973;SDS011;59840;52.122;5.404;2024-02-14T08:26:10;14.30;;;7.13;;
71973;SDS011;59840;52.122;5.404;2024-02-14T08:28:37;10.23;;;6.65;;
71973;SDS011;59840;52.122;5.404;2024-02-14T08:31:10;10.05;;;7.32;;
71973;SDS011;59840;52.122;5.404;2024-02-14T08:33:38;13.68;;;7.95;;
71973;SDS011;59840;52.122;5.404;2024-02-14T08:36:05;14.30;;;7.53;;
71973;SDS011;59840;52.122;5.404;2024-02-14T08:38:36;14.98;;;7.80;;
71973;SDS011;59840;52.122;5.404;2024-02-14T08:41:03;15.13;;;7.50;;
71973;SDS011;59840;52.122;5.404;2024-02-14T08:43:30;14.70;;;7.35;;
71973;SDS011;59840;52.122;5.404;2024-02-14T08:45:56;10.65;;;7.47;;
71973;SDS011;59840;52.122;5.404;2024-02-14T08:48:23;9.00;;;7.00;;
71973;SDS011;59840;52.122;5.404;2024-02-14T08:50:50;11.30;;;7.20;;
71973;SDS011;59840;52.122;5.404;2024-02-14T08:53:16;10.15;;;6.72;;
71973;SDS011;59840;52.122;5.404;2024-02-14T08:55:43;11.68;;;7.07;;
71973;SDS011;59840;52.122;5.404;2024-02-14T08:58:10;11.32;;;6.85;;
71973;SDS011;59840;52.122;5.404;2024-02-14T09:00:37;8.37;;;5.67;;
71973;SDS011;59840;52.122;5.404;2024-02-14T09:03:05;9.73;;;6.20;;
71973;SDS011;59840;52.122;5.404;2024-02-14T09:05:32;9.88;;;5.95;;
71973;SDS011;59840;52.122;5.404;2024-02-14T09:07:59;15.05;;;6.82;;
71973;SDS011;59840;52.122;5.404;2024-02-14T09:10:26;9.57;;;6.22;;
71973;SDS011;59840;52.122;5.404;2024-02-14T09:12:53;9.97;;;6.00;;
71973;SDS011;59840;52.122;5.404;2024-02-14T09:15:19;7.25;;;5.95;;
71973;SDS011;59840;52.122;5.404;2024-02-14T09:17:47;10.00;;;6.07;;
71973;SDS011;59840;52.122;5.404;2024-02-14T09:20:14;9.95;;;6.82;;
71973;SDS011;59840;52.122;5.404;2024-02-14T09:22:41;10.18;;;6.82;;
71973;SDS011;59840;52.122;5.404;2024-02-14T09:25:08;10.60;;;6.97;;
71973;SDS011;59840;52.122;5.404;2024-02-14T09:27:37;11.20;;;7.70;;
71973;SDS011;59840;52.122;5.404;2024-02-14T09:30:04;11.15;;;7.57;;
71973;SDS011;59840;52.122;5.404;2024-02-14T09:32:33;10.15;;;7.72;;
71973;SDS011;59840;52.122;5.404;2024-02-14T09:35:00;11.77;;;8.50;;
71973;SDS011;59840;52.122;5.404;2024-02-14T09:37:27;9.93;;;7.43;;
71973;SDS011;59840;52.122;5.404;2024-02-14T09:39:54;10.43;;;6.90;;
71973;SDS011;59840;52.122;5.404;2024-02-14T09:42:23;10.80;;;7.57;;
71973;SDS011;59840;52.122;5.404;2024-02-14T09:45:05;8.82;;;7.03;;
71973;SDS011;59840;52.122;5.404;2024-02-14T09:47:34;8.13;;;6.55;;
71973;SDS011;59840;52.122;5.404;2024-02-14T09:50:03;11.33;;;6.20;;
71973;SDS011;59840;52.122;5.404;2024-02-14T09:52:32;10.48;;;6.78;;
71973;SDS011;59840;52.122;5.404;2024-02-14T09:55:00;10.27;;;7.18;;
71973;SDS011;59840;52.122;5.404;2024-02-14T09:57:29;11.20;;;8.40;;
71973;SDS011;59840;52.122;5.404;2024-02-14T09:59:56;14.45;;;8.50;;
71973;SDS011;59840;52.122;5.404;2024-02-14T10:02:23;14.43;;;8.37;;
71973;SDS011;59840;52.122;5.404;2024-02-14T10:04:49;13.23;;;8.88;;
71973;SDS011;59840;52.122;5.404;2024-02-14T10:07:16;13.63;;;9.30;;
71973;SDS011;59840;52.122;5.404;2024-02-14T10:09:43;15.27;;;9.63;;
71973;SDS011;59840;52.122;5.404;2024-02-14T10:12:10;20.27;;;10.27;;
71973;SDS011;59840;52.122;5.404;2024-02-14T10:14:37;12.90;;;8.93;;
71973;SDS011;59840;52.122;5.404;2024-02-14T10:17:03;23.48;;;9.52;;
71973;SDS011;59840;52.122;5.404;2024-02-14T10:19:31;11.73;;;8.73;;
71973;SDS011;59840;52.122;5.404;2024-02-14T10:21:58;13.15;;;8.98;;
71973;SDS011;59840;52.122;5.404;2024-02-14T10:24:26;14.60;;;8.40;;
71973;SDS011;59840;52.122;5.404;2024-02-14T10:26:54;15.20;;;8.17;;
71973;SDS011;59840;52.122;5.404;2024-02-14T10:29:24;10.13;;;7.65;;
71973;SDS011;59840;52.122;5.404;2024-02-14T10:31:51;12.00;;;8.20;;
71973;SDS011;59840;52.122;5.404;2024-02-14T10:34:19;16.92;;;8.40;;
71973;SDS011;59840;52.122;5.404;2024-02-14T10:36:52;12.55;;;7.50;;
71973;SDS011;59840;52.122;5.404;2024-02-14T10:39:22;12.73;;;7.43;;
71973;SDS011;59840;52.122;5.404;2024-02-14T10:41:51;14.27;;;7.82;;
71973;SDS011;59840;52.122;5.404;2024-02-14T10:44:18;13.18;;;8.40;;
71973;SDS011;59840;52.122;5.404;2024-02-14T10:46:45;11.75;;;6.72;;
71973;SDS011;59840;52.122;5.404;2024-02-14T10:49:13;11.15;;;8.23;;
71973;SDS011;59840;52.122;5.404;2024-02-14T10:51:42;10.20;;;8.00;;
71973;SDS011;59840;52.122;5.404;2024-02-14T10:54:10;11.55;;;7.80;;
71973;SDS011;59840;52.122;5.404;2024-02-14T10:56:38;10.82;;;8.00;;
71973;SDS011;59840;52.122;5.404;2024-02-14T10:59:07;11.13;;;7.63;;
71973;SDS011;59840;52.122;5.404;2024-02-14T11:01:36;11.68;;;7.07;;
71973;SDS011;59840;52.122;5.404;2024-02-14T11:04:03;8.00;;;6.33;;
71973;SDS011;59840;52.122;5.404;2024-02-14T11:06:31;8.15;;;6.72;;
71973;SDS011;59840;52.122;5.404;2024-02-14T11:09:00;9.48;;;7.00;;
71973;SDS011;59840;52.122;5.404;2024-02-14T11:11:33;6.97;;;6.25;;
71973;SDS011;59840;52.122;5.404;2024-02-14T11:14:00;7.35;;;6.63;;
71973;SDS011;59840;52.122;5.404;2024-02-14T11:16:27;9.70;;;6.90;;
71973;SDS011;59840;52.122;5.404;2024-02-14T11:19:11;7.38;;;6.63;;
71973;SDS011;59840;52.122;5.404;2024-02-14T11:21:40;8.95;;;6.35;;
71973;SDS011;59840;52.122;5.404;2024-02-14T11:24:12;8.32;;;6.50;;
71973;SDS011;59840;52.122;5.404;2024-02-14T11:26:51;10.48;;;6.72;;
71973;SDS011;59840;52.122;5.404;2024-02-14T11:29:18;12.47;;;6.23;;
71973;SDS011;59840;52.122;5.404;2024-02-14T11:31:57;9.85;;;5.97;;
71973;SDS011;59840;52.122;5.404;2024-02-14T11:34:28;6.70;;;5.28;;
71973;SDS011;59840;52.122;5.404;2024-02-14T11:36:55;6.28;;;5.65;;
71973;SDS011;59840;52.122;5.404;2024-02-14T11:39:21;12.32;;;5.80;;
71973;SDS011;59840;52.122;5.404;2024-02-14T11:41:48;6.57;;;5.53;;
71973;SDS011;59840;52.122;5.404;2024-02-14T11:44:15;6.45;;;5.72;;
71973;SDS011;59840;52.122;5.404;2024-02-14T11:46:41;8.95;;;6.15;;
71973;SDS011;59840;52.122;5.404;2024-02-14T11:49:08;9.38;;;6.78;;
71973;SDS011;59840;52.122;5.404;2024-02-14T11:51:35;8.77;;;7.18;;
71973;SDS011;59840;52.122;5.404;2024-02-14T11:54:03;9.83;;;6.83;;
71973;SDS011;59840;52.122;5.404;2024-02-14T11:56:31;8.18;;;6.47;;
71973;SDS011;59840;52.122;5.404;2024-02-14T11:59:05;11.07;;;6.90;;
71973;SDS011;59840;52.122;5.404;2024-02-14T12:01:34;9.95;;;6.85;;
71973;SDS011;59840;52.122;5.404;2024-02-14T12:04:05;8.13;;;6.68;;
71973;SDS011;59840;52.122;5.404;2024-02-14T12:06:35;8.03;;;6.23;;
71973;SDS011;59840;52.122;5.404;2024-02-14T12:09:03;6.90;;;6.07;;
71973;SDS011;59840;52.122;5.404;2024-02-14T12:11:32;8.02;;;6.72;;
71973;SDS011;59840;52.122;5.404;2024-02-14T12:14:06;7.07;;;6.13;;
71973;SDS011;59840;52.122;5.404;2024-02-14T12:16:34;10.38;;;6.00;;
71973;SDS011;59840;52.122;5.404;2024-02-14T12:19:04;9.63;;;6.17;;
71973;SDS011;59840;52.122;5.404;2024-02-14T12:21:36;9.75;;;5.68;;
71973;SDS011;59840;52.122;5.404;2024-02-14T12:24:04;6.65;;;5.95;;
71973;SDS011;59840;52.122;5.404;2024-02-14T12:26:34;7.30;;;5.40;;
71973;SDS011;59840;52.122;5.404;2024-02-14T12:29:03;8.77;;;5.93;;
71973;SDS011;59840;52.122;5.404;2024-02-14T12:31:30;6.33;;;5.60;;
71973;SDS011;59840;52.122;5.404;2024-02-14T12:33:57;5.72;;;4.95;;
71973;SDS011;59840;52.122;5.404;2024-02-14T12:36:26;6.63;;;5.70;;
71973;SDS011;59840;52.122;5.404;2024-02-14T12:38:54;8.40;;;4.88;;
71973;SDS011;59840;52.122;5.404;2024-02-14T12:41:21;5.45;;;4.53;;
71973;SDS011;59840;52.122;5.404;2024-02-14T12:43:49;5.03;;;4.07;;
71973;SDS011;59840;52.122;5.404;2024-02-14T12:46:16;7.05;;;4.55;;
71973;SDS011;59840;52.122;5.404;2024-02-14T12:48:43;5.28;;;4.43;;
71973;SDS011;59840;52.122;5.404;2024-02-14T12:51:10;5.15;;;4.57;;
71973;SDS011;59840;52.122;5.404;2024-02-14T12:53:39;4.82;;;4.32;;
71973;SDS011;59840;52.122;5.404;2024-02-14T12:56:09;4.50;;;4.07;;
71973;SDS011;59840;52.122;5.404;2024-02-14T12:58:36;4.00;;;3.35;;
71973;SDS011;59840;52.122;5.404;2024-02-14T13:01:03;5.82;;;3.33;;
71973;SDS011;59840;52.122;5.404;2024-02-14T13:03:33;3.58;;;2.50;;
71973;SDS011;59840;52.122;5.404;2024-02-14T13:05:59;4.00;;;2.80;;
71973;SDS011;59840;52.122;5.404;2024-02-14T13:08:26;2.87;;;2.50;;
71973;SDS011;59840;52.122;5.404;2024-02-14T13:10:53;4.07;;;2.70;;
71973;SDS011;59840;52.122;5.404;2024-02-14T13:13:20;4.38;;;2.67;;
71973;SDS011;59840;52.122;5.404;2024-02-14T13:15:46;4.40;;;2.80;;
71973;SDS011;59840;52.122;5.404;2024-02-14T13:18:13;10.00;;;2.63;;
71973;SDS011;59840;52.122;5.404;2024-02-14T13:20:40;3.23;;;2.50;;
71973;SDS011;59840;52.122;5.404;2024-02-14T13:23:08;3.85;;;3.13;;
71973;SDS011;59840;52.122;5.404;2024-02-14T13:25:35;3.25;;;2.95;;
71973;SDS011;59840;52.122;5.404;2024-02-14T13:28:04;3.05;;;2.60;;
71973;SDS011;59840;52.122;5.404;2024-02-14T13:30:31;4.28;;;2.78;;
71973;SDS011;59840;52.122;5.404;2024-02-14T13:32:59;3.17;;;2.87;;
71973;SDS011;59840;52.122;5.404;2024-02-14T13:35:26;2.50;;;2.30;;
71973;SDS011;59840;52.122;5.404;2024-02-14T13:37:54;2.90;;;2.70;;
71973;SDS011;59840;52.122;5.404;2024-02-14T13:40:22;3.20;;;2.75;;
71973;SDS011;59840;52.122;5.404;2024-02-14T13:42:49;3.83;;;2.67;;
71973;SDS011;59840;52.122;5.404;2024-02-14T13:45:15;4.33;;;2.53;;
71973;SDS011;59840;52.122;5.404;2024-02-14T13:47:42;2.70;;;2.50;;
71973;SDS011;59840;52.122;5.404;2024-02-14T13:50:10;3.30;;;2.50;;
71973;SDS011;59840;52.122;5.404;2024-02-14T13:52:37;3.22;;;2.92;;
71973;SDS011;59840;52.122;5.404;2024-02-14T13:55:04;3.72;;;2.90;;
71973;SDS011;59840;52.122;5.404;2024-02-14T13:57:33;4.00;;;2.60;;
71973;SDS011;59840;52.122;5.404;2024-02-14T14:00:02;3.08;;;2.78;;
71973;SDS011;59840;52.122;5.404;2024-02-14T14:02:30;4.15;;;3.13;;
71973;SDS011;59840;52.122;5.404;2024-02-14T14:04:56;3.30;;;3.00;;
71973;SDS011;59840;52.122;5.404;2024-02-14T14:07:23;5.70;;;3.50;;
71973;SDS011;59840;52.122;5.404;2024-02-14T14:09:50;5.07;;;3.60;;
71973;SDS011;59840;52.122;5.404;2024-02-14T14:12:17;4.05;;;3.65;;
71973;SDS011;59840;52.122;5.404;2024-02-14T14:14:43;5.15;;;3.90;;
71973;SDS011;59840;52.122;5.404;2024-02-14T14:17:10;4.05;;;3.65;;
71973;SDS011;59840;52.122;5.404;2024-02-14T14:19:36;4.20;;;3.80;;
71973;SDS011;59840;52.122;5.404;2024-02-14T14:22:03;3.67;;;3.37;;
71973;SDS011;59840;52.122;5.404;2024-02-14T14:24:30;4.30;;;3.90;;
71973;SDS011;59840;52.122;5.404;2024-02-14T14:26:58;6.63;;;3.67;;
71973;SDS011;59840;52.122;5.404;2024-02-14T14:29:24;5.50;;;3.92;;
71973;SDS011;59840;52.122;5.404;2024-02-14T14:31:51;4.97;;;4.30;;
71973;SDS011;59840;52.122;5.404;2024-02-14T14:34:18;4.83;;;3.70;;
71973;SDS011;59840;52.122;5.404;2024-02-14T14:36:46;6.93;;;4.45;;
71973;SDS011;59840;52.122;5.404;2024-02-14T14:39:12;7.47;;;4.38;;
71973;SDS011;59840;52.122;5.404;2024-02-14T14:41:39;5.00;;;4.13;;
71973;SDS011;59840;52.122;5.404;2024-02-14T14:44:05;4.68;;;4.28;;
71973;SDS011;59840;52.122;5.404;2024-02-14T14:46:32;4.20;;;3.80;;
71973;SDS011;59840;52.122;5.404;2024-02-14T14:49:00;5.03;;;3.30;;
71973;SDS011;59840;52.122;5.404;2024-02-14T14:51:27;5.72;;;3.53;;